createdAt,value
2023-03-05T00:00:26.377Z,23.10
2023-03-05T00:01:35.642Z,23.09
2023-03-05T00:02:38.489Z,23.09
2023-03-05T00:03:41.261Z,23.08
2023-03-05T00:04:44.066Z,23.09
2023-03-05T00:05:46.751Z,23.08
2023-03-05T00:06:49.916Z,23.09
2023-03-05T00:07:52.606Z,23.10
2023-03-05T00:08:56.329Z,23.09
2023-03-05T00:10:00.685Z,23.09
2023-03-05T00:11:05.695Z,23.09
2023-03-05T00:12:08.934Z,23.08
2023-03-05T00:13:12.709Z,23.08
2023-03-05T00:14:15.333Z,23.08
2023-03-05T00:15:18.296Z,23.08
2023-03-05T00:16:21.597Z,23.08
2023-03-05T00:17:24.458Z,23.09
2023-03-05T00:18:27.161Z,23.09
2023-03-05T00:19:30.038Z,23.09
2023-03-05T00:20:35.525Z,23.08
2023-03-05T00:21:39.899Z,23.09
2023-03-05T00:22:42.932Z,23.10
2023-03-05T00:23:45.541Z,23.10
2023-03-05T00:24:51.486Z,23.10
2023-03-05T00:25:54.283Z,23.11
2023-03-05T00:26:57.036Z,23.12
2023-03-05T00:27:59.543Z,23.12
2023-03-05T00:29:03.496Z,23.12
2023-03-05T00:30:07.954Z,23.12
2023-03-05T00:31:12.195Z,23.12
2023-03-05T00:32:14.889Z,23.12
2023-03-05T00:33:17.858Z,23.11
2023-03-05T00:34:20.519Z,23.13
2023-03-05T00:35:23.370Z,23.12
2023-03-05T00:36:26.065Z,23.13
2023-03-05T00:37:28.525Z,23.14
2023-03-05T00:38:31.001Z,23.13
2023-03-05T00:39:33.526Z,23.14
2023-03-05T00:41:50.852Z,23.24
2023-03-05T00:42:54.096Z,23.14
2023-03-05T00:43:56.769Z,23.13
2023-03-05T00:44:59.501Z,23.13
2023-03-05T00:46:03.507Z,23.13
2023-03-05T00:47:07.682Z,23.14
2023-03-05T00:48:11.941Z,23.13
2023-03-05T00:49:14.697Z,23.13
2023-03-05T00:50:18.276Z,23.13
2023-03-05T00:51:21.316Z,23.12
2023-03-05T00:52:24.134Z,23.13
2023-03-05T00:53:26.964Z,23.12
2023-03-05T00:54:30.580Z,23.11
2023-03-05T00:55:35.216Z,23.11
2023-03-05T00:56:37.975Z,23.11
2023-03-05T00:57:40.909Z,23.12
2023-03-05T00:58:43.509Z,23.13
2023-03-05T00:59:47.230Z,23.14
2023-03-05T01:00:50.138Z,23.15
2023-03-05T01:01:53.123Z,23.15
2023-03-05T01:02:55.917Z,23.15
2023-03-05T01:04:01.462Z,23.14
2023-03-05T01:05:04.796Z,23.13
2023-03-05T01:06:09.629Z,23.14
2023-03-05T01:07:13.436Z,23.12
2023-03-05T01:08:16.372Z,23.12
2023-03-05T01:09:19.004Z,23.12
2023-03-05T01:10:23.370Z,23.12
2023-03-05T01:11:25.993Z,23.12
2023-03-05T01:12:28.539Z,23.11
2023-03-05T01:13:31.783Z,23.12
2023-03-05T01:14:36.329Z,23.12
2023-03-05T01:15:39.033Z,23.12
2023-03-05T01:16:42.476Z,23.12
2023-03-05T01:17:46.198Z,23.12
2023-03-05T01:18:49.138Z,23.11
2023-03-05T01:19:52.240Z,23.11
2023-03-05T01:20:57.022Z,23.11
2023-03-05T01:21:59.536Z,23.11
2023-03-05T01:23:02.917Z,23.12
2023-03-05T01:24:06.413Z,23.13
2023-03-05T01:25:09.373Z,23.12
2023-03-05T01:26:13.009Z,23.14
2023-03-05T01:27:16.413Z,23.14
2023-03-05T01:28:18.953Z,23.14
2023-03-05T01:29:21.388Z,23.13
2023-03-05T01:30:24.476Z,23.13
2023-03-05T01:31:27.185Z,23.13
2023-03-05T01:32:29.749Z,23.13
2023-03-05T01:33:32.410Z,23.14
2023-03-05T01:34:37.177Z,23.14
2023-03-05T01:35:41.218Z,23.14
2023-03-05T01:36:43.975Z,23.13
2023-03-05T01:37:47.200Z,23.14
2023-03-05T01:38:50.612Z,23.13
2023-03-05T01:39:56.240Z,23.13
2023-03-05T01:40:59.480Z,23.12
2023-03-05T01:42:02.965Z,23.13
2023-03-05T01:43:12.765Z,23.12
2023-03-05T01:45:38.125Z,23.21
2023-03-05T01:46:42.002Z,23.10
2023-03-05T01:47:44.784Z,23.10
2023-03-05T01:48:51.247Z,23.10
2023-03-05T01:49:53.918Z,23.09
2023-03-05T01:50:56.581Z,23.08
2023-03-05T01:52:11.168Z,23.09
2023-03-05T01:53:14.783Z,23.10
2023-03-05T01:54:18.284Z,23.10
2023-03-05T01:55:23.270Z,23.09
2023-03-05T01:56:27.824Z,23.09
2023-03-05T01:57:36.159Z,23.09
2023-03-05T01:58:39.322Z,23.10
2023-03-05T01:59:42.973Z,23.09
2023-03-05T02:00:47.691Z,23.09
2023-03-05T02:01:51.742Z,23.09
2023-03-05T02:02:54.710Z,23.09
2023-03-05T02:03:57.570Z,23.09
2023-03-05T02:05:06.048Z,23.09
2023-03-05T02:06:09.590Z,23.09
2023-03-05T02:07:12.688Z,23.09
2023-03-05T02:08:17.309Z,23.09
2023-03-05T02:09:23.491Z,23.10
2023-03-05T02:11:42.793Z,23.22
2023-03-05T02:12:45.265Z,23.11
2023-03-05T02:13:47.720Z,23.11
2023-03-05T02:14:53.724Z,23.11
2023-03-05T02:15:57.714Z,23.12
2023-03-05T02:17:01.202Z,23.10
2023-03-05T02:18:04.681Z,23.10
2023-03-05T02:19:10.247Z,23.09
2023-03-05T02:21:39.264Z,23.20
2023-03-05T02:22:41.850Z,23.08
2023-03-05T02:23:44.945Z,23.08
2023-03-05T02:24:47.525Z,23.07
2023-03-05T02:25:50.399Z,23.07
2023-03-05T02:26:53.134Z,23.07
2023-03-05T02:28:02.038Z,23.06
2023-03-05T02:29:04.965Z,23.06
2023-03-05T02:30:09.051Z,23.06
2023-03-05T02:31:18.851Z,23.04
2023-03-05T02:32:21.699Z,23.05
2023-03-05T02:33:24.528Z,23.03
2023-03-05T02:34:27.596Z,23.03
2023-03-05T02:35:31.009Z,23.02
2023-03-05T02:36:34.393Z,23.01
2023-03-05T02:37:37.071Z,23.00
2023-03-05T02:38:40.031Z,23.01
2023-03-05T02:39:42.557Z,23.00
2023-03-05T02:40:47.045Z,22.99
2023-03-05T02:41:49.898Z,23.00
2023-03-05T02:42:52.562Z,23.00
2023-03-05T02:43:55.317Z,23.00
2023-03-05T02:44:58.596Z,23.00
2023-03-05T02:46:01.951Z,22.99
2023-03-05T02:47:05.213Z,22.99
2023-03-05T02:48:08.572Z,22.99
2023-03-05T02:49:11.713Z,23.01
2023-03-05T02:50:14.448Z,23.01
2023-03-05T02:51:18.118Z,23.01
2023-03-05T02:52:22.727Z,23.01
2023-03-05T02:53:26.520Z,23.00
2023-03-05T02:54:29.527Z,23.00
2023-03-05T02:55:32.234Z,23.00
2023-03-05T02:56:37.736Z,22.99
2023-03-05T02:57:41.542Z,22.99
2023-03-05T02:58:44.479Z,23.00
2023-03-05T02:59:47.395Z,23.00
2023-03-05T03:00:50.169Z,23.00
2023-03-05T03:01:52.646Z,23.00
2023-03-05T03:02:55.596Z,23.00
2023-03-05T03:03:59.296Z,23.02
2023-03-05T03:05:02.057Z,23.01
2023-03-05T03:06:06.443Z,23.01
2023-03-05T03:07:10.598Z,23.00
2023-03-05T03:08:14.536Z,23.01
2023-03-05T03:09:17.034Z,23.01
2023-03-05T03:10:19.782Z,22.99
2023-03-05T03:11:22.303Z,23.01
2023-03-05T03:12:24.921Z,23.00
2023-03-05T03:13:27.773Z,23.01
2023-03-05T03:14:35.250Z,23.01
2023-03-05T03:15:39.836Z,23.01
2023-03-05T03:16:42.684Z,23.00
2023-03-05T03:17:45.830Z,23.01
2023-03-05T03:18:48.661Z,23.01
2023-03-05T03:19:51.293Z,23.01
2023-03-05T03:20:54.459Z,23.01
2023-03-05T03:21:57.451Z,23.01
2023-03-05T03:23:00.425Z,23.01
2023-03-05T03:24:04.328Z,23.02
2023-03-05T03:25:09.510Z,23.02
2023-03-05T03:26:12.007Z,23.03
2023-03-05T03:27:15.572Z,23.03
2023-03-05T03:28:18.301Z,23.04
2023-03-05T03:29:21.016Z,23.03
2023-03-05T03:30:23.733Z,23.03
2023-03-05T03:31:26.998Z,23.03
2023-03-05T03:32:30.516Z,23.03
2023-03-05T03:33:33.228Z,23.02
2023-03-05T03:34:35.904Z,23.03
2023-03-05T03:35:38.558Z,23.03
2023-03-05T03:36:42.765Z,23.02
2023-03-05T03:37:45.268Z,23.01
2023-03-05T03:38:48.534Z,23.04
2023-03-05T03:39:51.627Z,23.04
2023-03-05T03:40:54.429Z,23.02
2023-03-05T03:41:57.167Z,23.01
2023-03-05T03:42:59.715Z,23.03
2023-03-05T03:44:05.226Z,23.04
2023-03-05T03:45:08.744Z,23.03
2023-03-05T03:46:12.991Z,23.03
2023-03-05T03:47:16.386Z,23.03
2023-03-05T03:48:18.969Z,23.03
2023-03-05T03:49:23.424Z,23.03
2023-03-05T03:50:27.383Z,23.03
2023-03-05T03:51:31.163Z,23.03
2023-03-05T03:52:34.941Z,23.04
2023-03-05T03:53:37.572Z,23.02
2023-03-05T03:54:40.391Z,23.04
2023-03-05T03:55:43.394Z,23.03
2023-03-05T03:56:46.117Z,23.03
2023-03-05T03:57:49.141Z,23.03
2023-03-05T03:58:53.213Z,23.01
2023-03-05T03:59:56.187Z,23.03
2023-03-05T04:00:58.809Z,23.03
2023-03-05T04:02:01.306Z,22.97
2023-03-05T04:03:04.531Z,22.97
2023-03-05T04:04:07.329Z,23.01
2023-03-05T04:05:10.623Z,23.02
2023-03-05T04:06:13.642Z,23.01
2023-03-05T04:07:17.233Z,23.01
2023-03-05T04:08:20.377Z,23.02
2023-03-05T04:09:22.940Z,23.02
2023-03-05T04:10:26.243Z,23.01
2023-03-05T04:11:28.726Z,23.01
2023-03-05T04:12:31.258Z,23.01
2023-03-05T04:13:33.492Z,23.00
2023-03-05T04:14:36.020Z,23.00
2023-03-05T04:15:38.559Z,23.00
2023-03-05T04:16:43.883Z,23.00
2023-03-05T04:17:46.665Z,23.00
2023-03-05T04:18:50.519Z,22.99
2023-03-05T04:19:53.654Z,23.00
2023-03-05T04:20:56.370Z,23.00
2023-03-05T04:22:00.025Z,23.00
2023-03-05T04:23:04.230Z,22.99
2023-03-05T04:24:07.753Z,22.99
2023-03-05T04:25:10.525Z,22.99
2023-03-05T04:26:13.282Z,23.01
2023-03-05T04:27:15.855Z,22.99
2023-03-05T04:28:18.387Z,22.99
2023-03-05T04:29:21.438Z,22.99
2023-03-05T04:30:23.917Z,22.99
2023-03-05T04:31:26.820Z,22.99
2023-03-05T04:32:30.337Z,23.01
2023-03-05T04:33:33.489Z,22.91
2023-03-05T04:34:38.970Z,23.00
2023-03-05T04:35:41.903Z,22.99
2023-03-05T04:36:44.704Z,22.99
2023-03-05T04:37:47.370Z,22.99
2023-03-05T04:38:49.942Z,22.98
2023-03-05T04:39:52.700Z,22.98
2023-03-05T04:40:55.724Z,22.99
2023-03-05T04:41:58.209Z,22.99
2023-03-05T04:43:00.828Z,22.98
2023-03-05T04:44:04.508Z,22.99
2023-03-05T04:45:10.169Z,22.99
2023-03-05T04:46:12.731Z,22.99
2023-03-05T04:47:15.583Z,22.99
2023-03-05T04:48:19.218Z,22.99
2023-03-05T04:49:22.303Z,22.99
2023-03-05T04:50:25.536Z,22.99
2023-03-05T04:51:28.143Z,22.99
2023-03-05T04:52:30.863Z,22.99
2023-03-05T04:53:33.775Z,22.99
2023-03-05T04:54:36.323Z,22.94
2023-03-05T04:55:38.793Z,22.94
2023-03-05T04:56:42.454Z,22.98
2023-03-05T04:57:45.025Z,22.98
2023-03-05T04:58:48.272Z,22.98
2023-03-05T04:59:51.278Z,22.98
2023-03-05T05:00:53.957Z,22.98
2023-03-05T05:01:57.231Z,22.99
2023-03-05T05:03:00.012Z,22.99
2023-03-05T05:04:02.981Z,23.00
2023-03-05T05:05:06.189Z,22.99
2023-03-05T05:06:09.560Z,22.99
2023-03-05T05:07:12.371Z,22.99
2023-03-05T05:08:16.999Z,23.00
2023-03-05T05:09:19.628Z,22.99
2023-03-05T05:10:22.381Z,23.00
2023-03-05T05:11:25.077Z,22.99
2023-03-05T05:12:30.530Z,22.96
2023-03-05T05:13:33.841Z,22.94
2023-03-05T05:14:37.387Z,22.93
2023-03-05T05:15:41.219Z,22.92
2023-03-05T05:16:43.828Z,22.92
2023-03-05T05:17:46.609Z,22.85
2023-03-05T05:18:49.217Z,22.85
2023-03-05T05:19:51.660Z,22.92
2023-03-05T05:21:57.743Z,22.91
2023-03-05T05:23:00.493Z,22.91
2023-03-05T05:24:04.073Z,22.91
2023-03-05T05:25:07.460Z,22.92
2023-03-05T05:26:12.282Z,22.92
2023-03-05T05:27:15.710Z,22.94
2023-03-05T05:28:18.478Z,22.94
2023-03-05T05:30:24.782Z,22.93
2023-03-05T05:31:27.416Z,22.92
2023-03-05T05:36:44.483Z,22.94
2023-03-05T05:37:47.142Z,22.94
2023-03-05T05:38:52.021Z,22.94
2023-03-05T05:39:54.551Z,22.95
2023-03-05T05:41:08.619Z,22.93
2023-03-05T05:42:11.614Z,22.94
2023-03-05T05:44:16.370Z,22.91
2023-03-05T05:45:19.102Z,22.91
2023-03-05T05:46:22.246Z,22.91
2023-03-05T05:47:25.911Z,22.90
2023-03-05T05:48:29.816Z,22.90
2023-03-05T05:49:32.260Z,22.91
2023-03-05T05:50:35.136Z,22.91
2023-03-05T05:51:37.820Z,22.90
2023-03-05T05:52:41.155Z,22.90
2023-03-05T05:53:43.973Z,22.91
2023-03-05T05:54:46.451Z,22.91
2023-03-05T05:55:50.107Z,22.90
2023-03-05T05:56:53.581Z,22.90
2023-03-05T05:57:56.310Z,22.90
2023-03-05T05:58:59.304Z,22.90
2023-03-05T06:00:03.086Z,22.90
2023-03-05T06:01:24.945Z,22.90
2023-03-05T06:02:27.544Z,22.90
2023-03-05T06:03:32.339Z,22.90
2023-03-05T06:04:35.543Z,22.90
2023-03-05T06:05:38.045Z,22.90
2023-03-05T06:06:41.004Z,22.90
2023-03-05T06:07:44.877Z,22.90
2023-03-05T06:08:47.626Z,22.90
2023-03-05T06:09:50.316Z,22.91
2023-03-05T06:10:55.845Z,22.92
2023-03-05T06:11:59.775Z,22.92
2023-03-05T06:14:06.921Z,22.92
2023-03-05T06:15:10.608Z,22.94
2023-03-05T06:17:31.056Z,23.04
2023-03-05T06:18:35.018Z,22.93
2023-03-05T06:19:37.758Z,22.93
2023-03-05T06:20:41.700Z,22.93
2023-03-05T06:21:44.465Z,22.94
2023-03-05T06:22:47.432Z,22.93
2023-03-05T06:23:50.041Z,22.94
2023-03-05T06:24:53.746Z,22.95
2023-03-05T06:26:00.640Z,22.96
2023-03-05T06:27:03.988Z,22.94
2023-03-05T06:28:06.611Z,22.95
2023-03-05T06:29:09.076Z,22.96
2023-03-05T06:30:12.909Z,22.96
2023-03-05T06:31:17.366Z,22.96
2023-03-05T06:32:20.861Z,22.95
2023-03-05T06:33:24.605Z,22.96
2023-03-05T06:34:28.465Z,22.97
2023-03-05T06:35:32.110Z,22.96
2023-03-05T06:36:36.563Z,22.96
2023-03-05T06:37:38.965Z,22.97
2023-03-05T06:38:42.788Z,22.97
2023-03-05T06:39:45.419Z,22.97
2023-03-05T06:40:48.849Z,22.97
2023-03-05T06:41:51.659Z,22.97
2023-03-05T06:42:54.317Z,22.98
2023-03-05T06:43:59.396Z,22.98
2023-03-05T06:45:02.087Z,23.00
2023-03-05T06:46:07.718Z,22.99
2023-03-05T06:47:10.535Z,22.99
2023-03-05T06:48:13.288Z,22.99
2023-03-05T06:49:15.894Z,22.99
2023-03-05T06:50:20.374Z,23.00
2023-03-05T06:51:33.612Z,23.00
2023-03-05T06:52:38.027Z,23.00
2023-03-05T06:53:41.858Z,23.01
2023-03-05T06:54:45.598Z,23.00
2023-03-05T06:55:49.106Z,22.99
2023-03-05T06:56:52.253Z,23.00
2023-03-05T06:57:55.529Z,23.00
2023-03-05T06:58:58.643Z,22.99
2023-03-05T07:00:02.210Z,23.00
2023-03-05T07:01:06.684Z,23.01
2023-03-05T07:02:10.885Z,23.01
2023-03-05T07:03:14.974Z,23.00
2023-03-05T07:04:17.698Z,23.01
2023-03-05T07:05:20.170Z,23.01
2023-03-05T07:06:23.994Z,23.00
2023-03-05T07:07:27.578Z,23.02
2023-03-05T07:08:31.655Z,23.01
2023-03-05T07:09:34.584Z,23.02
2023-03-05T07:10:41.822Z,23.02
2023-03-05T07:11:45.190Z,23.01
2023-03-05T07:12:47.813Z,23.01
2023-03-05T07:13:50.888Z,22.97
2023-03-05T07:14:53.719Z,22.97
2023-03-05T07:15:57.477Z,23.01
2023-03-05T07:17:00.235Z,23.04
2023-03-05T07:18:04.105Z,23.03
2023-03-05T07:19:08.576Z,23.03
2023-03-05T07:20:14.305Z,23.03
2023-03-05T07:21:19.145Z,23.03
2023-03-05T07:22:21.931Z,23.04
2023-03-05T07:23:24.508Z,23.03
2023-03-05T07:24:28.908Z,23.02
2023-03-05T07:25:31.505Z,23.02
2023-03-05T07:26:34.141Z,23.03
2023-03-05T07:27:38.356Z,23.02
2023-03-05T07:28:42.249Z,23.03
2023-03-05T07:29:45.849Z,23.03
2023-03-05T07:30:59.749Z,23.03
2023-03-05T07:32:03.657Z,23.01
2023-03-05T07:33:06.776Z,23.03
2023-03-05T07:34:09.534Z,23.03
2023-03-05T07:35:11.979Z,23.03
2023-03-05T07:36:15.042Z,23.02
2023-03-05T07:37:17.678Z,23.02
2023-03-05T07:38:20.384Z,23.02
2023-03-05T07:39:23.021Z,23.02
2023-03-05T07:40:26.784Z,23.02
2023-03-05T07:41:29.799Z,23.01
2023-03-05T07:42:33.142Z,23.04
2023-03-05T07:43:38.877Z,23.03
2023-03-05T07:44:41.770Z,23.05
2023-03-05T07:45:45.093Z,23.05
2023-03-05T07:46:48.385Z,23.06
2023-03-05T07:47:52.649Z,23.06
2023-03-05T07:48:55.752Z,23.05
2023-03-05T07:49:58.464Z,23.06
2023-03-05T07:52:19.584Z,23.17
2023-03-05T07:53:25.632Z,23.06
2023-03-05T07:54:36.594Z,23.05
2023-03-05T07:55:43.482Z,23.05
2023-03-05T07:56:46.146Z,23.04
2023-03-05T07:57:50.638Z,22.99
2023-03-05T07:58:53.681Z,22.99
2023-03-05T07:59:57.429Z,23.04
2023-03-05T08:00:59.957Z,23.04
2023-03-05T08:02:02.426Z,23.04
2023-03-05T08:03:06.655Z,23.04
2023-03-05T08:04:11.077Z,23.06
2023-03-05T08:05:14.068Z,23.05
2023-03-05T08:06:16.947Z,23.05
2023-03-05T08:07:19.346Z,23.04
2023-03-05T08:08:22.886Z,23.05
2023-03-05T08:09:25.712Z,23.05
2023-03-05T08:10:29.228Z,23.05
2023-03-05T08:11:31.958Z,23.05
2023-03-05T08:12:34.618Z,23.05
2023-03-05T08:13:37.626Z,23.05
2023-03-05T08:14:40.782Z,23.04
2023-03-05T08:15:43.166Z,23.04
2023-03-05T08:16:48.254Z,23.03
2023-03-05T08:17:50.430Z,23.03
2023-03-05T08:18:57.811Z,23.03
2023-03-05T08:20:03.187Z,23.02
2023-03-05T08:21:05.984Z,23.01
2023-03-05T08:22:08.611Z,23.02
2023-03-05T08:23:10.944Z,23.02
2023-03-05T08:24:14.244Z,23.03
2023-03-05T08:25:17.289Z,23.03
2023-03-05T08:26:21.351Z,23.02
2023-03-05T08:27:24.011Z,23.03
2023-03-05T08:28:28.675Z,23.02
2023-03-05T08:29:32.631Z,23.03
2023-03-05T08:30:38.844Z,23.03
2023-03-05T08:31:45.169Z,23.03
2023-03-05T08:32:49.073Z,23.04
2023-03-05T08:33:54.051Z,23.03
2023-03-05T08:34:59.018Z,23.05
2023-03-05T08:36:02.766Z,23.05
2023-03-05T08:37:07.776Z,23.05
2023-03-05T08:38:10.981Z,23.04
2023-03-05T08:39:13.290Z,23.04
2023-03-05T08:40:19.212Z,23.04
2023-03-05T08:41:22.903Z,23.04
2023-03-05T08:42:25.658Z,23.04
2023-03-05T08:43:30.655Z,23.04
2023-03-05T08:44:33.309Z,23.04
2023-03-05T08:45:35.777Z,23.04
2023-03-05T08:46:39.613Z,23.05
2023-03-05T08:47:42.844Z,23.06
2023-03-05T08:48:45.563Z,23.07
2023-03-05T08:50:00.449Z,23.07
2023-03-05T08:51:16.143Z,23.08
2023-03-05T08:52:20.984Z,23.09
2023-03-05T08:53:23.835Z,23.08
2023-03-05T08:54:27.668Z,23.09
2023-03-05T08:56:50.334Z,23.20
2023-03-05T08:57:52.920Z,23.09
2023-03-05T08:58:55.217Z,23.09
2023-03-05T08:59:57.804Z,23.09
2023-03-05T09:01:01.596Z,23.08
2023-03-05T09:02:05.453Z,23.10
2023-03-05T09:03:08.573Z,23.10
2023-03-05T09:04:11.157Z,23.10
2023-03-05T09:05:16.173Z,23.10
2023-03-05T09:06:19.235Z,23.10
2023-03-05T09:07:22.212Z,23.12
2023-03-05T09:08:25.729Z,23.10
2023-03-05T09:09:34.335Z,23.11
2023-03-05T09:10:45.995Z,23.10
2023-03-05T09:11:49.596Z,23.10
2023-03-05T09:12:51.879Z,23.10
2023-03-05T09:13:54.296Z,23.10
2023-03-05T09:14:56.933Z,23.10
2023-03-05T09:16:01.211Z,23.09
2023-03-05T09:17:06.458Z,23.09
2023-03-05T09:18:09.257Z,23.10
2023-03-05T09:19:12.597Z,23.10
2023-03-05T09:20:25.226Z,23.10
2023-03-05T09:21:30.587Z,23.10
2023-03-05T09:22:34.119Z,23.10
2023-03-05T09:23:37.542Z,23.12
2023-03-05T09:24:44.058Z,23.15
2023-03-05T09:25:48.250Z,23.18
2023-03-05T09:26:52.555Z,23.21
2023-03-05T09:27:58.338Z,23.22
2023-03-05T09:29:03.117Z,23.23
2023-03-05T09:30:07.664Z,23.24
2023-03-05T09:31:10.737Z,23.27
2023-03-05T09:32:13.500Z,23.26
2023-03-05T09:33:17.754Z,23.29
2023-03-05T09:34:20.777Z,23.29
2023-03-05T09:35:23.219Z,23.30
2023-03-05T09:36:29.385Z,23.31
2023-03-05T09:37:32.845Z,23.31
2023-03-05T09:38:37.410Z,23.32
2023-03-05T09:39:42.168Z,23.33
2023-03-05T09:40:58.433Z,23.34
2023-03-05T09:42:18.078Z,23.34
2023-03-05T09:43:42.770Z,23.35
2023-03-05T09:44:56.024Z,23.36
2023-03-05T09:46:02.214Z,23.36
2023-03-05T09:47:35.098Z,23.37
2023-03-05T09:48:50.668Z,23.36
2023-03-05T09:50:25.294Z,23.36
2023-03-05T09:51:30.350Z,23.35
2023-03-05T09:52:43.498Z,23.33
2023-03-05T09:55:16.273Z,23.43
2023-03-05T09:56:34.071Z,23.32
2023-03-05T09:57:41.312Z,23.31
2023-03-05T09:58:56.812Z,23.32
2023-03-05T10:00:00.802Z,23.31
2023-03-05T10:01:16.452Z,23.33
2023-03-05T10:02:23.641Z,23.33
2023-03-05T10:03:50.833Z,23.23
2023-03-05T10:06:25.197Z,23.47
2023-03-05T10:07:30.253Z,23.35
2023-03-05T10:09:02.345Z,23.36
2023-03-05T10:10:26.382Z,23.37
2023-03-05T10:11:57.448Z,23.37
2023-03-05T10:13:01.336Z,23.31
2023-03-05T10:14:04.624Z,23.23
2023-03-05T10:15:15.875Z,23.22
2023-03-05T10:16:40.643Z,23.18
2023-03-05T10:19:20.353Z,22.80
2023-03-05T10:20:32.439Z,22.54
2023-03-05T10:21:44.601Z,22.35
2023-03-05T10:23:03.769Z,22.18
2023-03-05T10:24:19.687Z,22.12
2023-03-05T10:25:32.472Z,22.02
2023-03-05T10:26:55.826Z,21.96
2023-03-05T10:28:00.702Z,21.95
2023-03-05T10:29:19.259Z,21.97
2023-03-05T10:30:45.633Z,21.99
2023-03-05T10:32:01.508Z,22.04
2023-03-05T10:33:13.812Z,22.08
2023-03-05T10:34:25.783Z,22.12
2023-03-05T10:36:11.052Z,22.16
2023-03-05T10:37:25.698Z,22.17
2023-03-05T10:38:34.834Z,22.16
2023-03-05T10:39:50.227Z,22.09
2023-03-05T10:40:56.382Z,22.05
2023-03-05T10:44:10.996Z,22.32
2023-03-05T10:45:20.944Z,22.28
2023-03-05T10:46:29.084Z,22.36
2023-03-05T10:47:36.441Z,22.40
2023-03-05T10:48:55.162Z,22.47
2023-03-05T10:49:59.373Z,22.51
2023-03-05T10:52:30.989Z,22.74
2023-03-05T10:53:49.212Z,22.67
2023-03-05T10:54:51.478Z,22.70
2023-03-05T10:55:55.917Z,22.74
2023-03-05T10:57:14.077Z,22.76
2023-03-05T10:58:17.209Z,22.80
2023-03-05T10:59:20.803Z,22.83
2023-03-05T11:00:28.427Z,22.84
2023-03-05T11:01:32.685Z,22.88
2023-03-05T11:02:35.502Z,22.90
2023-03-05T11:03:49.761Z,22.91
2023-03-05T11:04:52.939Z,22.95
2023-03-05T11:06:00.707Z,22.97
2023-03-05T11:07:31.897Z,22.99
2023-03-05T11:08:35.171Z,23.02
2023-03-05T11:09:37.540Z,23.06
2023-03-05T11:10:40.551Z,23.07
2023-03-05T11:11:45.210Z,23.09
2023-03-05T11:12:48.817Z,23.10
2023-03-05T11:13:59.421Z,23.12
2023-03-05T11:15:08.718Z,23.14
2023-03-05T11:16:23.520Z,23.17
2023-03-05T11:17:39.250Z,23.18
2023-03-05T11:18:42.792Z,23.18
2023-03-05T11:19:45.646Z,23.20
2023-03-05T11:20:48.321Z,23.21
2023-03-05T11:22:10.358Z,23.22
2023-03-05T11:23:19.240Z,23.22
2023-03-05T11:24:23.371Z,23.24
2023-03-05T11:25:27.462Z,23.24
2023-03-05T11:26:30.146Z,23.25
2023-03-05T11:27:38.117Z,23.21
2023-03-05T11:28:53.409Z,23.12
2023-03-05T11:29:56.626Z,23.09
2023-03-05T11:31:19.162Z,22.96
2023-03-05T11:32:28.434Z,22.77
2023-03-05T11:33:34.045Z,22.49
2023-03-05T11:34:36.546Z,22.34
2023-03-05T11:35:42.713Z,22.29
2023-03-05T11:36:55.800Z,22.23
2023-03-05T11:38:03.449Z,22.14
2023-03-05T11:39:09.335Z,22.10
2023-03-05T11:40:20.654Z,22.06
2023-03-05T11:42:52.434Z,22.09
2023-03-05T11:43:54.988Z,21.96
2023-03-05T11:44:57.613Z,21.87
2023-03-05T11:46:03.703Z,21.80
2023-03-05T11:47:34.467Z,21.77
2023-03-05T11:48:39.104Z,21.74
2023-03-05T11:49:46.105Z,21.68
2023-03-05T11:50:51.135Z,21.68
2023-03-05T11:52:05.346Z,21.68
2023-03-05T11:53:16.721Z,21.70
2023-03-05T11:54:22.803Z,21.72
2023-03-05T11:55:28.485Z,21.71
2023-03-05T11:56:33.246Z,21.64
2023-03-05T11:57:52.598Z,21.54
2023-03-05T11:59:19.417Z,21.61
2023-03-05T12:00:27.142Z,21.60
2023-03-05T12:01:33.122Z,21.64
2023-03-05T12:02:37.490Z,21.67
2023-03-05T12:03:40.523Z,21.69
2023-03-05T12:04:45.681Z,21.72
2023-03-05T12:07:06.313Z,21.82
2023-03-05T12:08:15.295Z,21.65
2023-03-05T12:09:26.851Z,21.59
2023-03-05T12:10:30.083Z,21.52
2023-03-05T12:11:33.184Z,21.47
2023-03-05T12:13:09.496Z,21.44
2023-03-05T12:14:25.249Z,21.51
2023-03-05T12:15:57.670Z,21.64
2023-03-05T12:18:55.352Z,22.00
2023-03-05T12:20:09.127Z,21.96
2023-03-05T12:22:52.240Z,22.25
2023-03-05T12:24:01.463Z,22.20
2023-03-05T12:26:58.572Z,22.44
2023-03-05T12:28:02.020Z,22.38
2023-03-05T12:29:05.180Z,22.42
2023-03-05T12:31:38.638Z,22.62
2023-03-05T12:32:49.360Z,22.54
2023-03-05T12:33:52.838Z,22.58
2023-03-05T12:35:15.569Z,22.62
2023-03-05T12:36:25.811Z,22.67
2023-03-05T12:37:32.980Z,22.71
2023-03-05T12:38:38.024Z,22.73
2023-03-05T12:39:44.015Z,22.76
2023-03-05T12:40:47.335Z,22.78
2023-03-05T12:41:50.560Z,22.81
2023-03-05T12:42:56.677Z,22.83
2023-03-05T12:44:09.794Z,22.86
2023-03-05T12:45:16.478Z,22.88
2023-03-05T12:46:25.142Z,22.90
2023-03-05T12:48:33.635Z,22.95
2023-03-05T12:50:52.095Z,23.10
2023-03-05T12:51:56.672Z,23.00
2023-03-05T12:53:18.008Z,23.01
2023-03-05T12:54:25.500Z,23.01
2023-03-05T12:55:35.737Z,22.94
2023-03-05T12:56:40.758Z,22.87
2023-03-05T12:57:45.410Z,22.77
2023-03-05T12:58:53.972Z,22.71
2023-03-05T13:02:57.783Z,22.29
2023-03-05T13:05:30.768Z,22.26
2023-03-05T13:06:35.397Z,22.23
2023-03-05T13:07:39.094Z,22.14
2023-03-05T13:08:42.908Z,22.14
2023-03-05T13:09:53.983Z,22.10
2023-03-05T13:11:11.355Z,22.12
2023-03-05T13:12:14.677Z,22.17
2023-03-05T13:13:21.490Z,22.23
2023-03-05T13:14:34.920Z,22.29
2023-03-05T13:15:37.539Z,22.36
2023-03-05T13:16:41.511Z,22.41
2023-03-05T13:17:55.359Z,22.45
2023-03-05T13:19:01.072Z,22.49
2023-03-05T13:20:29.320Z,22.54
2023-03-05T13:21:33.320Z,22.56
2023-03-05T13:22:38.336Z,22.61
2023-03-05T13:23:48.423Z,22.64
2023-03-05T13:25:15.282Z,22.67
2023-03-05T13:26:19.798Z,22.70
2023-03-05T13:27:30.644Z,22.72
2023-03-05T13:28:34.297Z,22.75
2023-03-05T13:29:37.625Z,22.76
2023-03-05T13:30:55.595Z,22.78
2023-03-05T13:32:00.102Z,22.79
2023-03-05T13:33:04.014Z,22.80
2023-03-05T13:35:25.746Z,22.94
2023-03-05T13:36:28.894Z,22.86
2023-03-05T13:37:33.670Z,22.87
2023-03-05T13:38:41.160Z,22.88
2023-03-05T13:41:29.544Z,23.04
2023-03-05T13:42:35.133Z,22.91
2023-03-05T13:45:22.189Z,23.04
2023-03-05T13:46:28.769Z,22.94
2023-03-05T13:47:36.486Z,22.94
2023-03-05T13:48:39.805Z,22.95
2023-03-05T13:49:47.774Z,22.96
2023-03-05T13:51:03.739Z,22.97
2023-03-05T13:53:28.572Z,23.09
2023-03-05T13:54:33.347Z,22.99
2023-03-05T13:55:36.666Z,23.00
2023-03-05T13:56:58.579Z,23.01
2023-03-05T13:58:02.159Z,23.03
2023-03-05T13:59:05.763Z,23.04
2023-03-05T14:01:51.835Z,23.04
2023-03-05T14:02:55.102Z,23.06
2023-03-05T14:04:11.302Z,23.06
2023-03-05T14:05:14.852Z,23.07
2023-03-05T14:06:20.649Z,23.08
2023-03-05T14:07:35.777Z,23.08
2023-03-05T14:08:40.308Z,23.08
2023-03-05T14:09:46.529Z,23.08
2023-03-05T14:10:49.404Z,23.09
2023-03-05T14:13:18.335Z,23.18
2023-03-05T14:14:21.433Z,23.08
2023-03-05T14:15:30.236Z,23.08
2023-03-05T14:16:33.393Z,23.08
2023-03-05T14:17:41.844Z,23.09
2023-03-05T14:20:32.059Z,23.20
2023-03-05T14:23:02.894Z,23.18
2023-03-05T14:24:20.963Z,23.08
2023-03-05T14:25:37.022Z,23.08
2023-03-05T14:26:44.425Z,23.07
2023-03-05T14:27:47.979Z,23.08
2023-03-05T14:29:03.195Z,23.06
2023-03-05T14:30:13.207Z,23.08
2023-03-05T14:31:16.962Z,23.07
2023-03-05T14:32:33.576Z,23.07
2023-03-05T14:33:36.406Z,23.07
2023-03-05T14:34:41.562Z,23.08
2023-03-05T14:35:48.136Z,23.06
2023-03-05T14:36:52.457Z,23.07
2023-03-05T14:37:56.538Z,23.06
2023-03-05T14:40:33.012Z,23.17
2023-03-05T14:41:52.001Z,23.07
2023-03-05T14:42:59.722Z,23.09
2023-03-05T14:44:20.050Z,23.09
2023-03-05T14:45:39.599Z,23.09
2023-03-05T14:46:43.743Z,23.10
2023-03-05T14:47:46.704Z,23.10
2023-03-05T14:50:18.324Z,23.22
2023-03-05T14:51:29.711Z,23.12
2023-03-05T14:52:34.456Z,23.11
2023-03-05T14:54:57.228Z,23.23
2023-03-05T14:55:59.626Z,23.13
2023-03-05T14:57:03.745Z,23.13
2023-03-05T14:58:19.483Z,23.13
2023-03-05T14:59:22.942Z,23.12
2023-03-05T15:00:27.254Z,23.12
2023-03-05T15:01:31.830Z,23.12
2023-03-05T15:02:34.980Z,23.13